Time;durP1;ratioP1;P1;durP2;ratioP2;P2;SDS_P1;SDS_P2;PMS_P1;PMS_P2;Temp;Humidity;BMP_temperature;BMP_pressure;BME280_temperature;BME280_humidity;BME280_pressure;Samples;Min_cycle;Max_cycle;Signal;HPM_P1;HPM_P2
2021/04/29 00:01:28;;;;;;;8.98;7.75;;;20.90;76.20;;;;;;4975301;28;20489;-65
2021/04/29 00:03:55;;;;;;;14.18;7.80;;;21.00;75.30;;;;;;4975274;28;20031;-63
2021/04/29 00:06:23;;;;;;;13.90;8.23;;;21.10;75.20;;;;;;4975413;28;20030;-65
2021/04/29 00:08:50;;;;;;;10.23;7.80;;;21.10;74.90;;;;;;4975190;28;20110;-64
2021/04/29 00:11:18;;;;;;;10.90;7.20;;;21.20;74.60;;;;;;4975342;28;20153;-64
2021/04/29 00:13:45;;;;;;;12.52;8.98;;;21.30;75.10;;;;;;4974914;28;20054;-64
2021/04/29 00:16:13;;;;;;;8.55;6.65;;;21.30;74.30;;;;;;4974649;28;20058;-63
2021/04/29 00:18:40;;;;;;;10.88;7.20;;;21.30;74.10;;;;;;4974256;28;20034;-64
2021/04/29 00:21:08;;;;;;;16.88;10.43;;;21.50;73.70;;;;;;4975044;28;20508;-64
2021/04/29 00:23:35;;;;;;;12.80;8.93;;;21.60;73.00;;;;;;4974439;28;20026;-63
2021/04/29 00:26:02;;;;;;;17.95;8.80;;;21.60;72.80;;;;;;4974454;28;20159;-63
2021/04/29 00:28:30;;;;;;;12.25;8.50;;;21.60;72.90;;;;;;4974853;28;20031;-64
2021/04/29 00:30:57;;;;;;;11.65;8.25;;;21.70;72.80;;;;;;4975411;28;20074;-65
2021/04/29 00:33:25;;;;;;;14.63;7.95;;;21.80;72.10;;;;;;4975953;28;20046;-65
2021/04/29 00:35:53;;;;;;;8.82;6.35;;;21.90;71.90;;;;;;4975435;28;20057;-65
2021/04/29 00:38:20;;;;;;;9.00;7.38;;;21.90;72.20;;;;;;4974969;28;20038;-63
2021/04/29 00:40:48;;;;;;;7.75;6.90;;;21.90;71.60;;;;;;4975169;28;20031;-63
2021/04/29 00:43:15;;;;;;;8.32;6.18;;;22.10;71.70;;;;;;4975106;28;20086;-64
2021/04/29 00:45:43;;;;;;;11.85;6.82;;;22.10;71.50;;;;;;4974358;28;20034;-64
2021/04/29 00:48:10;;;;;;;9.30;6.40;;;22.20;71.00;;;;;;4975019;28;20031;-64
2021/04/29 00:50:38;;;;;;;6.25;5.63;;;22.30;70.50;;;;;;4974538;28;20051;-62
2021/04/29 00:53:05;;;;;;;13.00;6.82;;;22.30;70.90;;;;;;4974684;28;20019;-64
2021/04/29 00:55:34;;;;;;;8.85;6.95;;;22.40;70.20;;;;;;4956870;28;20117;-66
2021/04/29 00:58:03;;;;;;;7.80;7.00;;;22.50;69.90;;;;;;4974298;28;20031;-65
2021/04/29 01:00:31;;;;;;;14.80;8.00;;;22.60;69.80;;;;;;4974425;28;20034;-66
2021/04/29 01:03:20;;;;;;;7.63;5.65;;;22.70;69.50;;;;;;4974472;28;20027;-64
2021/04/29 01:05:55;;;;;;;9.80;6.28;;;22.70;69.60;;;;;;4974297;28;20200;-64
2021/04/29 01:09:03;;;;;;;7.13;6.07;;;22.60;69.70;;;;;;4973565;28;20026;-65
2021/04/29 01:11:33;;;;;;;8.77;5.68;;;22.60;69.90;;;;;;4965487;28;20050;-63
2021/04/29 01:14:05;;;;;;;6.70;5.97;;;22.70;69.40;;;;;;4974450;28;20105;-65
2021/04/29 01:16:34;;;;;;;7.78;5.70;;;22.70;69.70;;;;;;4973467;28;20034;-66
2021/04/29 01:19:04;;;;;;;8.18;5.95;;;22.80;69.50;;;;;;4973618;28;20109;-65
2021/04/29 01:21:32;;;;;;;9.10;6.32;;;22.90;69.10;;;;;;4973680;28;20030;-63
2021/04/29 01:24:00;;;;;;;8.43;6.68;;;22.90;68.40;;;;;;4973644;28;20078;-63
2021/04/29 01:26:33;;;;;;;8.38;6.03;;;23.20;67.30;;;;;;4973275;28;20497;-64
2021/04/29 01:29:23;;;;;;;8.75;6.35;;;23.10;68.50;;;;;;4973687;28;20031;-66
2021/04/29 01:31:53;;;;;;;13.05;6.32;;;23.30;67.50;;;;;;4972794;28;20059;-64
2021/04/29 01:34:23;;;;;;;12.10;5.93;;;23.40;67.00;;;;;;4956070;28;20106;-65
2021/04/29 01:36:53;;;;;;;11.15;7.10;;;23.40;67.30;;;;;;4973495;28;20027;-64
2021/04/29 01:39:21;;;;;;;8.48;5.97;;;23.50;66.80;;;;;;4973528;28;20034;-64
2021/04/29 01:41:51;;;;;;;8.38;5.53;;;23.50;66.80;;;;;;4972985;28;20427;-63
2021/04/29 01:44:20;;;;;;;9.60;5.78;;;23.70;66.00;;;;;;4973629;28;20026;-75
2021/04/29 01:46:49;;;;;;;11.02;5.35;;;23.80;65.70;;;;;;4973744;28;20181;-70
2021/04/29 01:49:18;;;;;;;8.90;6.43;;;23.90;66.10;;;;;;4973766;28;20043;-72
2021/04/29 01:51:46;;;;;;;15.88;6.15;;;23.90;65.00;;;;;;4973704;28;20285;-70
2021/04/29 01:54:16;;;;;;;14.60;5.80;;;24.00;65.20;;;;;;4973316;28;20019;-66
2021/04/29 01:56:45;;;;;;;24.50;6.28;;;23.70;66.40;;;;;;4973394;28;20101;-65
2021/04/29 01:59:12;;;;;;;12.30;5.90;;;23.50;68.00;;;;;;4973174;28;20551;-65
2021/04/29 02:01:42;;;;;;;29.38;6.35;;;23.40;68.60;;;;;;4972506;28;20168;-64
2021/04/29 02:04:10;;;;;;;11.75;5.80;;;23.40;68.60;;;;;;4973355;28;20073;-70
2021/04/29 02:06:39;;;;;;;26.55;6.70;;;23.50;68.70;;;;;;4973683;28;20041;-70
2021/04/29 02:09:08;;;;;;;20.23;6.35;;;23.60;69.20;;;;;;4970545;28;20026;-71
2021/04/29 02:11:45;;;;;;;21.88;6.32;;;23.70;68.10;;;;;;4973265;28;20027;-66
2021/04/29 02:14:13;;;;;;;25.27;6.60;;;23.80;67.30;;;;;;4972866;28;20062;-63
2021/04/29 02:16:47;;;;;;;12.85;6.03;;;23.90;67.60;;;;;;4955651;28;20114;-65
2021/04/29 02:19:18;;;;;;;18.75;6.80;;;24.10;65.30;;;;;;4974583;28;20493;-65
2021/04/29 02:21:50;;;;;;;14.65;5.63;;;24.20;65.80;;;;;;4976709;28;20035;-70
2021/04/29 02:24:19;;;;;;;16.20;6.28;;;24.20;66.20;;;;;;4976796;28;20086;-66
2021/04/29 02:26:50;;;;;;;7.78;5.53;;;24.20;66.00;;;;;;4961867;28;20046;-66
2021/04/29 02:29:19;;;;;;;22.20;7.03;;;24.10;65.80;;;;;;4974423;28;20059;-67
2021/04/29 02:31:47;;;;;;;11.13;5.88;;;24.10;66.30;;;;;;4973064;28;20398;-63
2021/04/29 02:34:15;;;;;;;20.80;7.25;;;24.30;65.40;;;;;;4973820;28;20035;-63
2021/04/29 02:36:43;;;;;;;18.65;5.55;;;24.30;65.50;;;;;;4976691;28;20409;-63
2021/04/29 02:39:10;;;;;;;15.35;6.13;;;24.20;66.20;;;;;;4973668;28;20045;-59
2021/04/29 02:41:38;;;;;;;18.33;6.13;;;24.20;66.00;;;;;;4973979;28;20458;-67
2021/04/29 02:44:05;;;;;;;10.38;5.18;;;24.10;66.50;;;;;;4972013;28;20037;-59
2021/04/29 02:46:34;;;;;;;12.10;5.78;;;24.20;66.50;;;;;;4973093;28;20093;-68
2021/04/29 02:49:02;;;;;;;18.23;5.40;;;24.10;66.20;;;;;;4973161;28;20050;-65
2021/04/29 02:51:30;;;;;;;15.25;5.40;;;24.20;67.00;;;;;;4972067;28;20042;-65
2021/04/29 02:53:57;;;;;;;14.52;5.65;;;24.30;65.60;;;;;;4970452;28;20053;-65
2021/04/29 02:56:25;;;;;;;12.18;5.35;;;24.50;65.50;;;;;;4974205;28;20517;-63
2021/04/29 02:58:52;;;;;;;11.13;4.95;;;24.50;66.20;;;;;;4975133;28;20393;-66
2021/04/29 03:01:19;;;;;;;14.07;5.70;;;24.60;65.70;;;;;;4973561;28;20366;-65
2021/04/29 03:03:47;;;;;;;11.23;5.40;;;24.50;65.70;;;;;;4969247;28;20018;-65
2021/04/29 03:06:14;;;;;;;14.73;4.95;;;24.50;66.40;;;;;;4973701;28;20129;-65
2021/04/29 03:08:42;;;;;;;11.10;4.70;;;24.60;66.00;;;;;;4973745;28;20453;-64
2021/04/29 03:11:09;;;;;;;11.25;4.13;;;24.70;65.00;;;;;;4973714;28;20554;-65
2021/04/29 03:13:37;;;;;;;9.85;4.57;;;24.80;64.20;;;;;;4968997;28;20137;-63
2021/04/29 03:16:04;;;;;;;12.55;4.82;;;24.80;65.00;;;;;;4973712;28;20097;-64
2021/04/29 03:18:32;;;;;;;10.25;4.25;;;24.80;64.00;;;;;;4973648;28;20033;-64
2021/04/29 03:20:59;;;;;;;9.23;4.22;;;24.90;64.10;;;;;;4973046;28;20023;-66
2021/04/29 03:23:26;;;;;;;11.82;4.43;;;24.90;64.10;;;;;;4969741;28;20149;-64
2021/04/29 03:25:54;;;;;;;11.50;4.28;;;24.80;63.90;;;;;;4973528;28;20031;-65
2021/04/29 03:28:21;;;;;;;9.10;4.30;;;24.90;65.10;;;;;;4973381;28;20428;-64
2021/04/29 03:30:49;;;;;;;12.38;4.07;;;24.80;64.60;;;;;;4970875;28;20027;-64
2021/04/29 03:33:16;;;;;;;7.95;4.00;;;24.80;65.20;;;;;;4968696;28;20181;-66
2021/04/29 03:35:43;;;;;;;10.57;4.72;;;24.70;65.30;;;;;;4973289;28;20034;-67
2021/04/29 03:38:11;;;;;;;7.47;4.25;;;24.70;65.70;;;;;;4971925;28;20046;-64
2021/04/29 03:40:39;;;;;;;9.48;4.07;;;24.80;66.00;;;;;;4972709;28;20038;-64
2021/04/29 03:43:07;;;;;;;21.20;5.90;;;24.90;65.10;;;;;;4967244;28;20042;-66
2021/04/29 03:45:34;;;;;;;11.43;4.20;;;24.90;65.40;;;;;;4970580;28;20039;-66
2021/04/29 03:48:03;;;;;;;9.05;4.05;;;25.00;65.30;;;;;;4971912;28;20031;-66
2021/04/29 03:50:30;;;;;;;6.55;3.70;;;25.00;63.80;;;;;;4972688;28;20059;-66
2021/04/29 03:52:58;;;;;;;10.90;3.85;;;25.00;65.10;;;;;;4968388;28;20035;-66
2021/04/29 03:55:25;;;;;;;9.88;4.25;;;25.20;64.30;;;;;;4971637;28;20413;-69
2021/04/29 03:57:53;;;;;;;14.18;5.20;;;25.20;63.50;;;;;;4972192;28;20037;-66
2021/04/29 04:00:20;;;;;;;8.38;4.45;;;25.20;63.00;;;;;;4970465;28;20043;-62
2021/04/29 04:02:48;;;;;;;9.55;3.95;;;25.40;62.90;;;;;;4966610;28;20022;-64
2021/04/29 04:05:15;;;;;;;10.00;4.15;;;25.40;62.90;;;;;;4971526;28;20515;-64
2021/04/29 04:07:43;;;;;;;7.38;4.15;;;25.40;62.40;;;;;;4971820;28;20031;-64
2021/04/29 04:10:10;;;;;;;14.35;4.25;;;25.40;63.70;;;;;;4971734;28;20031;-60
2021/04/29 04:12:39;;;;;;;7.05;3.17;;;25.40;64.30;;;;;;4970307;28;20027;-64
2021/04/29 04:15:07;;;;;;;9.90;3.65;;;25.40;62.20;;;;;;4969553;28;20478;-62
2021/04/29 04:17:35;;;;;;;7.20;3.70;;;25.40;64.00;;;;;;4971583;28;20031;-62
2021/04/29 04:20:04;;;;;;;6.63;3.47;;;25.30;64.60;;;;;;4971133;28;20035;-60
2021/04/29 04:22:31;;;;;;;9.65;3.97;;;25.20;65.00;;;;;;4971276;28;20043;-62
2021/04/29 04:24:59;;;;;;;8.13;3.78;;;25.40;64.70;;;;;;4950284;28;20035;-64
2021/04/29 04:27:26;;;;;;;6.32;3.30;;;25.50;61.60;;;;;;4971832;28;20045;-62
2021/04/29 04:29:53;;;;;;;6.03;3.78;;;25.40;62.60;;;;;;4969844;28;20219;-64
2021/04/29 04:32:21;;;;;;;6.90;4.03;;;25.50;62.90;;;;;;4974425;28;20425;-63
2021/04/29 04:34:48;;;;;;;14.38;4.35;;;25.50;62.40;;;;;;4972872;28;20553;-61
2021/04/29 04:37:15;;;;;;;5.95;3.67;;;25.50;63.90;;;;;;4973642;28;20114;-63
2021/04/29 04:39:43;;;;;;;4.45;3.42;;;25.40;64.20;;;;;;4973806;28;20100;-64
2021/04/29 04:42:10;;;;;;;8.77;4.07;;;25.40;62.30;;;;;;4974092;28;20070;-61
2021/04/29 04:44:37;;;;;;;7.07;3.85;;;25.40;64.10;;;;;;4974003;28;20038;-64
2021/04/29 04:47:05;;;;;;;10.07;3.78;;;25.40;64.70;;;;;;4974106;28;20038;-63
2021/04/29 04:49:32;;;;;;;10.25;3.60;;;25.30;63.30;;;;;;4973939;28;20414;-62
2021/04/29 04:51:59;;;;;;;4.50;3.53;;;25.40;63.90;;;;;;4974691;28;20075;-61
2021/04/29 04:54:27;;;;;;;8.15;3.40;;;25.30;65.00;;;;;;4958116;28;20374;-64
2021/04/29 04:56:55;;;;;;;10.18;3.50;;;25.40;63.60;;;;;;4972627;28;20026;-64
2021/04/29 04:59:22;;;;;;;4.38;3.10;;;25.50;61.80;;;;;;4974618;28;20050;-62
2021/04/29 05:01:50;;;;;;;6.15;3.40;;;25.50;63.40;;;;;;4973981;28;20039;-64
2021/04/29 05:04:17;;;;;;;6.93;4.05;;;25.40;64.10;;;;;;4974235;28;20026;-65
2021/04/29 05:06:44;;;;;;;6.80;3.25;;;25.40;64.40;;;;;;4973987;28;20030;-63
2021/04/29 05:09:12;;;;;;;5.13;3.60;;;25.40;64.50;;;;;;4974396;28;20026;-63
2021/04/29 05:11:39;;;;;;;8.13;3.67;;;25.40;64.80;;;;;;4973809;28;20526;-63
2021/04/29 05:14:06;;;;;;;6.05;3.53;;;25.40;62.60;;;;;;4973738;28;20030;-66
2021/04/29 05:16:34;;;;;;;6.10;3.25;;;25.50;64.30;;;;;;4965922;28;20096;-61
2021/04/29 05:19:01;;;;;;;6.78;3.38;;;25.50;62.20;;;;;;4969665;28;20031;-63
2021/04/29 05:21:30;;;;;;;5.85;3.50;;;25.50;64.20;;;;;;4969832;28;20031;-62
2021/04/29 05:23:58;;;;;;;5.55;3.25;;;25.40;64.60;;;;;;4937471;28;20030;-60
2021/04/29 05:26:25;;;;;;;5.65;3.38;;;25.50;64.30;;;;;;4969789;28;20042;-65
2021/04/29 05:28:52;;;;;;;5.60;3.33;;;25.50;62.60;;;;;;4969178;28;20427;-63
2021/04/29 05:31:20;;;;;;;4.40;3.28;;;25.50;64.40;;;;;;4969937;28;20046;-63
2021/04/29 05:33:47;;;;;;;6.15;2.78;;;25.50;64.40;;;;;;4969129;28;20027;-63
2021/04/29 05:36:16;;;;;;;6.53;3.13;;;25.40;63.10;;;;;;4969661;28;20362;-65
2021/04/29 05:38:43;;;;;;;6.00;3.15;;;25.40;64.20;;;;;;4949095;28;20116;-64
2021/04/29 05:41:11;;;;;;;6.68;3.25;;;25.40;63.60;;;;;;4970482;28;20031;-61
2021/04/29 05:43:38;;;;;;;7.43;3.35;;;25.30;64.30;;;;;;4969127;28;20485;-60
2021/04/29 05:46:06;;;;;;;5.43;3.10;;;25.30;64.00;;;;;;4969850;28;20030;-54
2021/04/29 05:48:33;;;;;;;5.60;2.67;;;25.20;65.40;;;;;;4965637;28;20109;-60
2021/04/29 05:51:01;;;;;;;6.80;2.95;;;25.10;65.40;;;;;;4969539;28;20046;-58
2021/04/29 05:53:28;;;;;;;6.05;3.22;;;25.20;64.60;;;;;;4958367;28;20126;-60
2021/04/29 05:55:56;;;;;;;4.93;3.22;;;25.10;63.80;;;;;;4970384;28;20489;-64
2021/04/29 05:58:23;;;;;;;4.78;3.55;;;25.00;65.80;;;;;;4966555;28;20121;-63
2021/04/29 06:00:51;;;;;;;5.40;3.17;;;25.00;63.70;;;;;;4965676;28;20468;-62
2021/04/29 06:03:21;;;;;;;7.18;3.55;;;25.00;65.30;;;;;;4970379;28;20474;-59
2021/04/29 06:05:49;;;;;;;3.45;2.72;;;25.00;64.90;;;;;;4969816;28;20038;-61
2021/04/29 06:08:17;;;;;;;5.65;3.10;;;24.90;66.00;;;;;;4963374;28;20042;-62
2021/04/29 06:10:44;;;;;;;7.78;3.20;;;24.80;66.10;;;;;;4969212;28;20125;-59
2021/04/29 06:13:12;;;;;;;5.22;3.13;;;24.80;65.40;;;;;;4972218;28;20039;-62
2021/04/29 06:15:39;;;;;;;4.93;3.28;;;24.80;66.10;;;;;;4970295;28;20023;-64
2021/04/29 06:18:06;;;;;;;4.60;3.17;;;24.70;65.20;;;;;;4965316;28;20054;-63
2021/04/29 06:20:34;;;;;;;4.30;2.80;;;24.60;66.50;;;;;;4969701;28;20042;-64
2021/04/29 06:23:01;;;;;;;4.57;3.20;;;24.50;66.10;;;;;;4969640;28;20358;-64
2021/04/29 06:25:30;;;;;;;4.45;3.20;;;24.40;67.30;;;;;;4968870;28;20565;-66
2021/04/29 06:28:00;;;;;;;4.15;3.03;;;24.20;67.60;;;;;;4964432;28;20035;-62
2021/04/29 06:30:27;;;;;;;4.70;2.80;;;24.10;66.70;;;;;;4969050;28;20027;-63
2021/04/29 06:32:55;;;;;;;5.60;2.92;;;24.10;67.90;;;;;;4972313;28;20015;-62
2021/04/29 06:35:22;;;;;;;3.10;2.63;;;24.00;65.90;;;;;;4973384;28;20023;-65
2021/04/29 06:37:50;;;;;;;4.93;2.70;;;23.80;66.80;;;;;;4972457;28;20872;-65
2021/04/29 06:40:17;;;;;;;4.13;2.97;;;23.70;66.80;;;;;;4972718;28;20038;-67
2021/04/29 06:42:44;;;;;;;5.90;3.45;;;23.60;67.20;;;;;;4973611;28;20106;-67
2021/04/29 06:45:12;;;;;;;3.85;2.40;;;23.40;69.10;;;;;;4973400;28;20039;-68
2021/04/29 06:47:40;;;;;;;3.35;2.50;;;23.30;67.90;;;;;;4972898;28;20052;-63
2021/04/29 06:50:08;;;;;;;3.25;2.47;;;23.30;69.30;;;;;;4972322;28;20042;-66
2021/04/29 06:52:35;;;;;;;3.75;2.95;;;23.10;68.30;;;;;;4972568;28;20105;-64
2021/04/29 06:55:03;;;;;;;5.05;2.90;;;23.00;69.40;;;;;;4973325;28;20030;-66
2021/04/29 06:57:31;;;;;;;5.38;3.25;;;22.90;70.50;;;;;;4972845;28;20023;-65
2021/04/29 06:59:58;;;;;;;4.65;2.97;;;22.80;71.10;;;;;;4973192;28;20027;-61
2021/04/29 07:02:25;;;;;;;6.10;3.20;;;22.70;72.20;;;;;;4972544;28;20031;-58
2021/04/29 07:04:53;;;;;;;9.18;3.20;;;22.60;72.90;;;;;;4972750;28;20393;-59
2021/04/29 07:07:20;;;;;;;4.43;2.63;;;22.60;73.30;;;;;;4969536;28;20049;-62
2021/04/29 07:09:47;;;;;;;9.13;3.95;;;22.50;73.80;;;;;;4971171;28;20038;-67
2021/04/29 07:12:15;;;;;;;9.07;4.13;;;22.50;70.00;;;;;;4974245;28;20093;-69
2021/04/29 07:14:42;;;;;;;7.68;4.60;;;22.20;68.90;;;;;;4974434;28;20038;-64
2021/04/29 07:17:10;;;;;;;16.10;8.88;;;22.10;68.40;;;;;;4976471;28;20034;-65
2021/04/29 07:19:37;;;;;;;23.23;7.28;;;22.10;70.90;;;;;;4976414;28;20023;-69
2021/04/29 07:22:05;;;;;;;13.55;7.22;;;22.00;68.50;;;;;;4976501;28;20033;-67
2021/04/29 07:24:32;;;;;;;10.50;5.70;;;22.00;68.70;;;;;;4976657;28;20027;-67
2021/04/29 07:27:04;;;;;;;14.90;7.72;;;21.90;68.30;;;;;;4976890;28;20066;-69
2021/04/29 07:29:32;;;;;;;;;;;21.80;68.60;;;;;;4976308;28;20465;-69
2021/04/29 07:32:01;;;;;;;21.00;10.10;;;21.80;68.50;;;;;;4975446;28;19906;-65
2021/04/29 07:34:29;;;;;;;22.63;13.43;;;21.90;69.90;;;;;;4974742;28;20031;-67
2021/04/29 07:36:59;;;;;;;22.40;11.40;;;21.90;69.50;;;;;;4974580;28;20023;-68
2021/04/29 07:39:27;;;;;;;13.57;10.15;;;21.80;69.70;;;;;;4975206;28;20088;-66
2021/04/29 07:41:54;;;;;;;13.32;8.43;;;21.80;70.30;;;;;;4957609;28;20029;-66
2021/04/29 07:44:22;;;;;;;9.25;6.25;;;21.80;70.10;;;;;;4975338;28;20031;-68
2021/04/29 07:46:49;;;;;;;18.52;13.00;;;21.70;69.40;;;;;;4975006;28;20081;-66
2021/04/29 07:49:17;;;;;;;24.60;19.90;;;21.70;70.50;;;;;;4975194;28;20522;-68
2021/04/29 07:51:44;;;;;;;13.25;10.55;;;21.80;70.90;;;;;;4974951;28;20033;-64
2021/04/29 07:54:15;;;;;;;15.73;9.85;;;21.80;71.40;;;;;;4975169;28;20019;-67
2021/04/29 07:56:44;;;;;;;13.27;7.38;;;21.80;72.10;;;;;;4975157;28;20038;-66
2021/04/29 07:59:12;;;;;;;11.15;6.93;;;21.70;72.70;;;;;;4957666;28;20120;-68
2021/04/29 08:01:40;;;;;;;14.93;8.85;;;21.70;73.30;;;;;;4974731;28;20462;-67
2021/04/29 08:04:09;;;;;;;9.93;7.72;;;21.70;74.30;;;;;;4974979;28;20552;-64
2021/04/29 08:06:36;;;;;;;16.50;10.73;;;21.70;75.10;;;;;;4974096;28;20565;-69
2021/04/29 08:09:04;;;;;;;16.52;9.95;;;21.60;76.50;;;;;;4975134;28;20018;-67
2021/04/29 08:11:31;;;;;;;20.15;9.23;;;21.70;76.70;;;;;;4974835;28;20031;-65
2021/04/29 08:13:58;;;;;;;16.45;9.75;;;21.70;76.40;;;;;;4975002;28;20401;-65
2021/04/29 08:16:26;;;;;;;14.57;9.82;;;21.80;77.20;;;;;;4974053;28;20363;-65
2021/04/29 08:18:53;;;;;;;18.25;10.05;;;21.80;78.50;;;;;;4966751;28;20027;-68
2021/04/29 08:21:20;;;;;;;14.63;10.23;;;21.90;77.50;;;;;;4970183;28;20086;-64
2021/04/29 08:23:48;;;;;;;17.42;13.00;;;21.80;78.10;;;;;;4971614;28;20105;-66
2021/04/29 08:26:15;;;;;;;13.82;10.63;;;21.90;78.00;;;;;;4952696;28;20469;-67
2021/04/29 08:28:44;;;;;;;15.20;10.45;;;21.90;77.80;;;;;;4970524;28;20058;-70
2021/04/29 08:31:11;;;;;;;35.30;13.50;;;21.80;78.00;;;;;;4971055;28;20398;-66
2021/04/29 08:33:39;;;;;;;19.75;14.68;;;21.80;79.70;;;;;;4972082;28;20070;-66
2021/04/29 08:36:08;;;;;;;27.50;19.42;;;21.80;79.40;;;;;;4971350;28;20054;-61
2021/04/29 08:38:36;;;;;;;24.52;20.73;;;21.80;79.50;;;;;;4974711;28;20023;-66
2021/04/29 08:41:04;;;;;;;29.98;16.30;;;21.80;80.80;;;;;;4974727;28;20033;-64
2021/04/29 08:43:32;;;;;;;29.42;22.35;;;21.90;81.30;;;;;;4974605;28;20027;-68
2021/04/29 08:45:59;;;;;;;35.40;16.55;;;21.90;82.50;;;;;;4975484;28;20105;-65
2021/04/29 08:48:26;;;;;;;26.98;15.55;;;21.90;84.50;;;;;;4959236;28;20366;-70
2021/04/29 08:50:54;;;;;;;26.27;15.70;;;21.90;84.00;;;;;;4974322;28;20433;-65
2021/04/29 08:53:21;;;;;;;26.10;14.50;;;21.90;84.30;;;;;;4974771;28;20027;-66
2021/04/29 08:55:49;;;;;;;27.42;14.38;;;21.90;84.20;;;;;;4974499;28;20486;-67
2021/04/29 08:58:16;;;;;;;27.00;18.25;;;21.90;84.80;;;;;;4974828;28;20093;-65
2021/04/29 09:00:44;;;;;;;23.17;13.32;;;22.00;86.30;;;;;;4957789;28;20113;-64
2021/04/29 09:03:11;;;;;;;23.80;14.38;;;22.00;87.60;;;;;;4974300;28;20030;-64
2021/04/29 09:05:47;;;;;;;22.58;15.45;;;22.10;88.40;;;;;;4974724;28;20171;-64
2021/04/29 09:08:14;;;;;;;15.30;13.15;;;22.10;87.70;;;;;;4956844;28;20030;-64
2021/04/29 09:10:44;;;;;;;25.33;13.93;;;22.10;86.80;;;;;;4974008;28;20122;-65
2021/04/29 09:13:20;;;;;;;21.08;13.95;;;22.10;87.80;;;;;;4974268;28;20407;-66
2021/04/29 09:15:48;;;;;;;20.20;13.30;;;22.10;86.30;;;;;;4974353;28;20124;-64
2021/04/29 09:18:19;;;;;;;14.75;9.23;;;22.10;87.90;;;;;;4974648;28;20034;-65
2021/04/29 09:21:07;;;;;;;18.42;9.05;;;22.10;86.00;;;;;;4973519;28;20412;-61
2021/04/29 09:23:37;;;;;;;13.43;8.27;;;22.00;86.00;;;;;;4974139;28;20118;-66
2021/04/29 09:26:13;;;;;;;14.90;7.97;;;22.00;87.60;;;;;;4974138;28;20397;-65
2021/04/29 09:28:44;;;;;;;14.25;6.85;;;22.00;87.00;;;;;;4973305;28;20166;-66
2021/04/29 09:31:16;;;;;;;10.27;6.13;;;22.10;87.90;;;;;;4973814;28;20130;-68
2021/04/29 09:33:46;;;;;;;44.65;7.25;;;22.10;85.90;;;;;;4973632;28;20496;-63
2021/04/29 09:36:32;;;;;;;27.17;5.85;;;22.10;89.10;;;;;;4973214;28;20038;-64
2021/04/29 09:39:01;;;;;;;15.52;5.38;;;22.20;87.90;;;;;;4973574;28;20062;-67
2021/04/29 09:41:34;;;;;;;16.70;9.63;;;22.10;86.00;;;;;;4973596;28;20046;-68
2021/04/29 09:44:08;;;;;;;26.23;15.25;;;22.00;83.80;;;;;;4955958;28;20089;-66
2021/04/29 09:46:47;;;;;;;19.02;13.68;;;21.90;81.60;;;;;;4973132;28;20031;-65
2021/04/29 09:49:38;;;;;;;15.40;7.88;;;21.90;81.10;;;;;;4973317;28;20410;-63
2021/04/29 09:52:18;;;;;;;16.02;6.97;;;21.70;81.70;;;;;;4955837;28;20118;-62
2021/04/29 09:54:49;;;;;;;14.50;7.00;;;21.70;82.70;;;;;;4973199;28;20092;-64
2021/04/29 09:57:24;;;;;;;19.25;8.32;;;21.70;82.90;;;;;;4973308;28;20101;-67
2021/04/29 09:59:59;;;;;;;14.05;9.40;;;21.60;83.40;;;;;;4973564;28;20034;-63
2021/04/29 10:02:30;;;;;;;14.60;8.10;;;21.60;82.50;;;;;;4972943;28;20047;-65
2021/04/29 10:04:57;;;;;;;18.63;9.00;;;21.50;82.70;;;;;;4955853;28;20026;-68
2021/04/29 10:07:24;;;;;;;14.93;10.52;;;21.50;83.40;;;;;;4973449;28;20078;-64
2021/04/29 10:09:52;;;;;;;16.08;9.90;;;21.50;83.90;;;;;;4973490;28;20443;-64
2021/04/29 10:12:24;;;;;;;12.68;8.68;;;21.50;83.90;;;;;;4973181;28;20413;-67
2021/04/29 10:14:52;;;;;;;;;;;21.50;85.10;;;;;;4973501;28;20371;-66
2021/04/29 10:17:22;;;;;;;21.30;7.93;;;21.50;83.50;;;;;;4973024;28;20346;-63
2021/04/29 10:19:55;;;;;;;13.15;7.55;;;21.50;84.80;;;;;;4973396;28;20101;-65
2021/04/29 10:22:27;;;;;;;13.00;7.35;;;21.50;85.80;;;;;;4972950;28;20031;-64
2021/04/29 10:24:54;;;;;;;;;;;21.50;86.10;;;;;;4956336;28;20120;-66
2021/04/29 10:27:26;;;;;;;16.45;9.88;;;21.50;86.10;;;;;;4972510;28;19906;-66
2021/04/29 10:30:36;;;;;;;23.05;15.48;;;21.50;86.60;;;;;;4973355;28;20027;-68
2021/04/29 10:33:23;;;;;;;16.60;12.27;;;21.50;84.80;;;;;;4965920;28;20486;-71
2021/04/29 10:35:59;;;;;;;16.02;14.35;;;21.50;85.00;;;;;;4972909;28;20030;-69
2021/04/29 10:38:36;;;;;;;25.42;19.73;;;21.50;85.20;;;;;;4972978;28;20019;-73
2021/04/29 10:41:24;;;;;;;15.38;9.60;;;21.60;86.00;;;;;;4976470;28;20386;-74
2021/04/29 10:43:54;;;;;;;13.30;6.88;;;21.60;86.10;;;;;;4977615;28;20422;-64
2021/04/29 10:46:34;;;;;;;11.50;5.72;;;21.60;86.10;;;;;;4967468;28;20167;-62
2021/04/29 10:49:02;;;;;;;8.95;5.28;;;21.50;85.30;;;;;;4969769;28;20039;-67
2021/04/29 10:51:31;;;;;;;10.15;5.90;;;21.50;85.30;;;;;;4970617;28;20497;-56
2021/04/29 10:54:26;;;;;;;11.07;5.70;;;21.50;86.00;;;;;;4973990;28;20046;-64
2021/04/29 10:57:16;;;;;;;15.32;6.28;;;21.40;86.50;;;;;;4973509;28;20145;-63
2021/04/29 10:59:49;;;;;;;9.68;5.68;;;21.40;85.80;;;;;;4952911;28;20363;-63
2021/04/29 11:02:29;;;;;;;9.65;5.55;;;21.40;85.70;;;;;;4973494;28;20049;-58
2021/04/29 11:04:57;;;;;;;7.03;5.18;;;21.40;85.70;;;;;;4973191;28;20023;-66
2021/04/29 11:07:27;;;;;;;11.50;5.13;;;21.40;85.40;;;;;;4973283;28;20060;-64
2021/04/29 11:10:09;;;;;;;15.05;5.80;;;21.30;85.50;;;;;;4954224;28;20031;-62
2021/04/29 11:12:52;;;;;;;12.77;6.10;;;21.30;85.60;;;;;;4972802;28;20508;-67
2021/04/29 11:15:21;;;;;;;;;;;21.30;85.70;;;;;;4974080;28;20034;-64
2021/04/29 11:18:10;;;;;;;15.48;5.95;;;21.20;85.70;;;;;;4970303;28;20794;-66
2021/04/29 11:20:44;;;;;;;8.93;5.47;;;21.10;84.20;;;;;;4972692;28;20105;-56
2021/04/29 11:23:12;;;;;;;8.77;6.07;;;21.10;85.80;;;;;;4974341;28;20031;-60
2021/04/29 11:25:42;;;;;;;15.30;5.25;;;21.10;85.70;;;;;;4972595;28;20054;-64
2021/04/29 11:28:10;;;;;;;8.07;5.40;;;21.20;85.50;;;;;;4968139;28;20478;-61
2021/04/29 11:30:41;;;;;;;8.65;5.40;;;21.10;85.70;;;;;;4973229;28;20406;-61
2021/04/29 11:33:12;;;;;;;7.95;5.55;;;21.10;85.80;;;;;;4971885;28;20027;-65
2021/04/29 11:35:42;;;;;;;11.73;6.28;;;21.10;85.50;;;;;;4972923;28;20034;-59
2021/04/29 11:38:11;;;;;;;9.05;5.45;;;21.10;85.60;;;;;;4969474;28;20038;-61
2021/04/29 11:40:39;;;;;;;11.80;6.38;;;21.00;85.50;;;;;;4970300;28;20039;-62
2021/04/29 11:43:07;;;;;;;9.18;5.10;;;21.00;85.50;;;;;;4972043;28;20421;-63
2021/04/29 11:45:41;;;;;;;7.60;5.47;;;21.00;85.40;;;;;;4973048;28;20034;-64
2021/04/29 11:48:13;;;;;;;6.00;4.57;;;21.00;85.50;;;;;;4967962;28;20705;-66
2021/04/29 11:50:40;;;;;;;11.10;5.35;;;21.00;85.80;;;;;;4972850;28;20159;-65
2021/04/29 11:53:16;;;;;;;12.20;5.75;;;21.00;85.70;;;;;;4972427;28;20135;-67
2021/04/29 11:55:49;;;;;;;8.38;5.07;;;20.90;85.70;;;;;;4971751;28;20033;-66
2021/04/29 11:58:21;;;;;;;6.20;4.72;;;20.90;85.70;;;;;;4970007;28;20433;-67
2021/04/29 12:00:54;;;;;;;9.02;5.88;;;20.90;85.50;;;;;;4973155;28;20497;-67
2021/04/29 12:03:24;;;;;;;9.50;5.60;;;20.90;85.70;;;;;;4963239;28;21336;-62
2021/04/29 12:05:58;;;;;;;10.70;4.95;;;20.80;85.80;;;;;;4971027;28;20121;-65
2021/04/29 12:08:35;;;;;;;9.73;5.28;;;20.80;86.10;;;;;;4967647;28;20119;-65
2021/04/29 12:11:04;;;;;;;13.68;4.72;;;20.80;86.20;;;;;;4969433;28;20433;-63
2021/04/29 12:13:37;;;;;;;9.82;4.40;;;20.80;86.00;;;;;;4972450;28;20027;-61
2021/04/29 12:16:09;;;;;;;8.43;5.63;;;20.80;85.90;;;;;;4970065;28;20058;-58
2021/04/29 12:18:41;;;;;;;7.53;4.70;;;20.80;85.40;;;;;;4965007;28;20027;-64
2021/04/29 12:21:09;;;;;;;7.75;4.95;;;20.80;85.60;;;;;;4952381;28;20548;-63
2021/04/29 12:23:37;;;;;;;8.90;4.90;;;20.80;85.70;;;;;;4971768;28;20077;-64
2021/04/29 12:26:06;;;;;;;5.55;4.32;;;20.70;85.50;;;;;;4972030;28;20039;-62
2021/04/29 12:28:41;;;;;;;9.25;5.18;;;20.70;85.40;;;;;;4967303;28;20061;-63
2021/04/29 12:31:22;;;;;;;10.20;5.30;;;20.70;85.50;;;;;;4954020;28;20122;-57
2021/04/29 12:33:50;;;;;;;9.13;5.03;;;20.70;85.50;;;;;;4955549;28;20541;-57
2021/04/29 12:36:18;;;;;;;7.53;4.85;;;20.70;85.20;;;;;;4973443;28;20039;-54
2021/04/29 12:38:46;;;;;;;9.02;5.22;;;20.70;85.00;;;;;;4967561;28;20402;-60
2021/04/29 12:41:13;;;;;;;9.15;5.30;;;20.70;85.00;;;;;;4971454;28;20018;-60
2021/04/29 12:43:41;;;;;;;7.03;4.35;;;20.70;85.10;;;;;;4969877;28;20050;-61
2021/04/29 12:46:09;;;;;;;8.77;5.00;;;20.60;85.00;;;;;;4970639;28;20208;-55
2021/04/29 12:48:40;;;;;;;7.05;5.03;;;20.60;84.90;;;;;;4968022;28;20502;-63
2021/04/29 12:51:12;;;;;;;8.70;4.85;;;20.60;84.70;;;;;;4968452;28;20102;-62
2021/04/29 12:53:50;;;;;;;8.90;4.68;;;20.60;84.80;;;;;;4963278;28;20034;-64